sensor_id;sensor_type;location;lat;lon;timestamp;temperature;humidity
75387;DHT22;63966;47.914;22.266;2022-12-26T00:00:34;5.38;95.89
75387;DHT22;63966;47.914;22.266;2022-12-26T00:03:38;5.37;95.81
75387;DHT22;63966;47.914;22.266;2022-12-26T00:06:41;5.42;95.82
75387;DHT22;63966;47.914;22.266;2022-12-26T00:09:45;5.41;95.90
75387;DHT22;63966;47.914;22.266;2022-12-26T00:12:49;5.42;96.00
75387;DHT22;63966;47.914;22.266;2022-12-26T00:15:52;5.37;95.88
75387;DHT22;63966;47.914;22.266;2022-12-26T00:18:56;5.40;95.97
75387;DHT22;63966;47.914;22.266;2022-12-26T00:21:59;5.44;96.13
75387;DHT22;63966;47.914;22.266;2022-12-26T00:25:03;5.35;96.30
75387;DHT22;63966;47.914;22.266;2022-12-26T00:28:07;5.42;96.27
75387;DHT22;63966;47.914;22.266;2022-12-26T00:31:18;5.42;96.17
75387;DHT22;63966;47.914;22.266;2022-12-26T00:34:22;5.44;96.19
75387;DHT22;63966;47.914;22.266;2022-12-26T00:37:26;5.40;96.16
75387;DHT22;63966;47.914;22.266;2022-12-26T00:40:29;5.73;95.11
75387;DHT22;63966;47.914;22.266;2022-12-26T00:43:33;5.62;95.14
75387;DHT22;63966;47.914;22.266;2022-12-26T00:46:36;5.81;94.20
75387;DHT22;63966;47.914;22.266;2022-12-26T00:49:40;5.56;94.83
75387;DHT22;63966;47.914;22.266;2022-12-26T00:53:03;5.50;95.57
75387;DHT22;63966;47.914;22.266;2022-12-26T00:56:07;5.55;95.36
75387;DHT22;63966;47.914;22.266;2022-12-26T00:59:11;5.71;94.41
75387;DHT22;63966;47.914;22.266;2022-12-26T01:02:14;5.66;94.72
75387;DHT22;63966;47.914;22.266;2022-12-26T01:05:41;5.56;94.94
75387;DHT22;63966;47.914;22.266;2022-12-26T01:08:45;5.59;94.81
75387;DHT22;63966;47.914;22.266;2022-12-26T01:11:48;5.47;95.16
75387;DHT22;63966;47.914;22.266;2022-12-26T01:14:55;5.55;95.19
75387;DHT22;63966;47.914;22.266;2022-12-26T01:17:59;5.61;94.70
75387;DHT22;63966;47.914;22.266;2022-12-26T01:21:06;5.54;94.69
75387;DHT22;63966;47.914;22.266;2022-12-26T01:24:10;5.56;94.61
75387;DHT22;63966;47.914;22.266;2022-12-26T01:27:15;5.56;94.49
75387;DHT22;63966;47.914;22.266;2022-12-26T01:30:18;5.50;94.50
75387;DHT22;63966;47.914;22.266;2022-12-26T01:33:22;5.27;95.27
75387;DHT22;63966;47.914;22.266;2022-12-26T01:36:25;5.26;95.29
75387;DHT22;63966;47.914;22.266;2022-12-26T01:39:29;5.23;95.53
75387;DHT22;63966;47.914;22.266;2022-12-26T01:42:38;5.47;94.56
75387;DHT22;63966;47.914;22.266;2022-12-26T01:45:44;5.54;94.04
75387;DHT22;63966;47.914;22.266;2022-12-26T01:48:52;5.51;94.15
75387;DHT22;63966;47.914;22.266;2022-12-26T01:51:59;5.42;94.28
75387;DHT22;63966;47.914;22.266;2022-12-26T01:55:05;5.34;94.49
75387;DHT22;63966;47.914;22.266;2022-12-26T01:58:14;5.38;94.46
75387;DHT22;63966;47.914;22.266;2022-12-26T02:01:21;5.41;94.18
75387;DHT22;63966;47.914;22.266;2022-12-26T02:04:32;5.24;95.04
75387;DHT22;63966;47.914;22.266;2022-12-26T02:07:56;5.31;94.59
75387;DHT22;63966;47.914;22.266;2022-12-26T02:11:18;5.13;95.16
75387;DHT22;63966;47.914;22.266;2022-12-26T02:14:22;5.23;95.12
75387;DHT22;63966;47.914;22.266;2022-12-26T02:17:27;5.31;94.58
75387;DHT22;63966;47.914;22.266;2022-12-26T02:45:08;5.10;95.17
75387;DHT22;63966;47.914;22.266;2022-12-26T02:49:09;5.23;94.79
75387;DHT22;63966;47.914;22.266;2022-12-26T02:52:19;5.40;93.48
75387;DHT22;63966;47.914;22.266;2022-12-26T02:55:44;5.23;94.04
75387;DHT22;63966;47.914;22.266;2022-12-26T03:06:30;5.27;93.64
75387;DHT22;63966;47.914;22.266;2022-12-26T03:09:56;5.28;93.21
75387;DHT22;63966;47.914;22.266;2022-12-26T03:13:25;5.38;93.06
75387;DHT22;63966;47.914;22.266;2022-12-26T03:16:30;5.33;92.96
75387;DHT22;63966;47.914;22.266;2022-12-26T03:19:58;5.24;93.06
75387;DHT22;63966;47.914;22.266;2022-12-26T03:23:14;5.19;93.65
75387;DHT22;63966;47.914;22.266;2022-12-26T03:26:22;5.23;93.22
75387;DHT22;63966;47.914;22.266;2022-12-26T03:29:44;5.27;92.86
75387;DHT22;63966;47.914;22.266;2022-12-26T03:33:06;5.37;92.46
75387;DHT22;63966;47.914;22.266;2022-12-26T03:37:00;5.17;92.82
75387;DHT22;63966;47.914;22.266;2022-12-26T03:40:19;5.17;93.13
75387;DHT22;63966;47.914;22.266;2022-12-26T03:44:04;5.14;93.19
75387;DHT22;63966;47.914;22.266;2022-12-26T03:51:41;5.12;93.13
75387;DHT22;63966;47.914;22.266;2022-12-26T03:59:09;5.00;93.35
75387;DHT22;63966;47.914;22.266;2022-12-26T04:02:34;4.94;93.28
75387;DHT22;63966;47.914;22.266;2022-12-26T04:06:00;4.82;93.94
75387;DHT22;63966;47.914;22.266;2022-12-26T04:09:48;5.06;92.56
75387;DHT22;63966;47.914;22.266;2022-12-26T04:13:21;5.01;92.30
75387;DHT22;63966;47.914;22.266;2022-12-26T04:23:49;5.10;92.01
75387;DHT22;63966;47.914;22.266;2022-12-26T04:27:13;5.10;91.86
75387;DHT22;63966;47.914;22.266;2022-12-26T04:30:39;4.96;92.13
75387;DHT22;63966;47.914;22.266;2022-12-26T04:34:08;4.93;92.23
75387;DHT22;63966;47.914;22.266;2022-12-26T04:37:34;5.09;91.54
75387;DHT22;63966;47.914;22.266;2022-12-26T04:40:59;5.09;91.61
75387;DHT22;63966;47.914;22.266;2022-12-26T04:44:23;5.12;91.21
75387;DHT22;63966;47.914;22.266;2022-12-26T04:47:30;5.01;91.11
75387;DHT22;63966;47.914;22.266;2022-12-26T04:50:34;5.09;91.39
75387;DHT22;63966;47.914;22.266;2022-12-26T04:53:37;5.01;91.43
75387;DHT22;63966;47.914;22.266;2022-12-26T04:56:41;4.94;92.05
75387;DHT22;63966;47.914;22.266;2022-12-26T04:59:45;5.01;91.86
75387;DHT22;63966;47.914;22.266;2022-12-26T05:02:48;5.07;91.44
75387;DHT22;63966;47.914;22.266;2022-12-26T05:06:15;5.12;91.07
75387;DHT22;63966;47.914;22.266;2022-12-26T05:09:37;5.10;91.11
75387;DHT22;63966;47.914;22.266;2022-12-26T05:12:42;5.17;91.05
75387;DHT22;63966;47.914;22.266;2022-12-26T05:15:45;5.13;91.29
75387;DHT22;63966;47.914;22.266;2022-12-26T05:19:11;5.19;90.85
75387;DHT22;63966;47.914;22.266;2022-12-26T05:22:37;5.16;91.08
75387;DHT22;63966;47.914;22.266;2022-12-26T05:26:00;5.19;90.87
75387;DHT22;63966;47.914;22.266;2022-12-26T05:29:24;5.16;90.76
75387;DHT22;63966;47.914;22.266;2022-12-26T05:32:28;5.14;91.25
75387;DHT22;63966;47.914;22.266;2022-12-26T05:35:50;5.10;91.21
75387;DHT22;63966;47.914;22.266;2022-12-26T05:38:53;5.04;91.44
75387;DHT22;63966;47.914;22.266;2022-12-26T05:41:58;5.16;91.30
75387;DHT22;63966;47.914;22.266;2022-12-26T05:45:02;5.00;91.51
75387;DHT22;63966;47.914;22.266;2022-12-26T05:48:05;4.86;92.16
75387;DHT22;63966;47.914;22.266;2022-12-26T05:51:09;4.97;91.80
75387;DHT22;63966;47.914;22.266;2022-12-26T05:54:12;5.13;91.17
75387;DHT22;63966;47.914;22.266;2022-12-26T05:57:16;5.01;91.64
75387;DHT22;63966;47.914;22.266;2022-12-26T06:00:20;5.07;91.42
75387;DHT22;63966;47.914;22.266;2022-12-26T06:03:23;5.07;91.36
75387;DHT22;63966;47.914;22.266;2022-12-26T06:06:28;5.12;91.26
75387;DHT22;63966;47.914;22.266;2022-12-26T06:09:31;5.26;90.68
75387;DHT22;63966;47.914;22.266;2022-12-26T06:12:35;5.14;91.11
75387;DHT22;63966;47.914;22.266;2022-12-26T06:15:39;5.14;91.06
75387;DHT22;63966;47.914;22.266;2022-12-26T06:18:43;5.10;91.31
75387;DHT22;63966;47.914;22.266;2022-12-26T06:21:46;5.28;90.69
75387;DHT22;63966;47.914;22.266;2022-12-26T06:24:50;5.28;90.74
75387;DHT22;63966;47.914;22.266;2022-12-26T06:27:54;5.24;90.79
75387;DHT22;63966;47.914;22.266;2022-12-26T06:31:10;5.21;90.86
75387;DHT22;63966;47.914;22.266;2022-12-26T06:34:14;5.33;90.23
75387;DHT22;63966;47.914;22.266;2022-12-26T06:37:17;5.38;90.53
75387;DHT22;63966;47.914;22.266;2022-12-26T06:40:21;5.26;91.02
75387;DHT22;63966;47.914;22.266;2022-12-26T06:43:24;5.34;90.33
75387;DHT22;63966;47.914;22.266;2022-12-26T06:46:27;5.37;90.13
75387;DHT22;63966;47.914;22.266;2022-12-26T06:49:31;5.26;90.37
75387;DHT22;63966;47.914;22.266;2022-12-26T06:52:35;5.21;90.76
75387;DHT22;63966;47.914;22.266;2022-12-26T06:55:38;5.20;90.44
75387;DHT22;63966;47.914;22.266;2022-12-26T06:58:42;5.28;90.20
75387;DHT22;63966;47.914;22.266;2022-12-26T07:01:46;5.44;89.55
75387;DHT22;63966;47.914;22.266;2022-12-26T07:04:50;5.37;89.82
75387;DHT22;63966;47.914;22.266;2022-12-26T07:07:53;5.45;89.56
75387;DHT22;63966;47.914;22.266;2022-12-26T07:10:57;5.56;89.13
75387;DHT22;63966;47.914;22.266;2022-12-26T07:14:00;5.45;89.42
75387;DHT22;63966;47.914;22.266;2022-12-26T07:17:04;5.52;89.42
75387;DHT22;63966;47.914;22.266;2022-12-26T07:20:08;5.54;89.34
75387;DHT22;63966;47.914;22.266;2022-12-26T07:23:12;5.63;88.84
75387;DHT22;63966;47.914;22.266;2022-12-26T07:26:16;5.72;89.06
75387;DHT22;63966;47.914;22.266;2022-12-26T07:29:19;5.66;88.76
75387;DHT22;63966;47.914;22.266;2022-12-26T07:32:25;5.68;89.29
75387;DHT22;63966;47.914;22.266;2022-12-26T07:35:29;5.66;88.90
75387;DHT22;63966;47.914;22.266;2022-12-26T07:38:33;5.76;88.88
75387;DHT22;63966;47.914;22.266;2022-12-26T07:41:37;5.69;89.11
75387;DHT22;63966;47.914;22.266;2022-12-26T07:44:59;5.72;88.87
75387;DHT22;63966;47.914;22.266;2022-12-26T07:48:02;5.85;88.53
75387;DHT22;63966;47.914;22.266;2022-12-26T07:51:06;5.88;88.47
75387;DHT22;63966;47.914;22.266;2022-12-26T07:54:10;5.96;88.25
75387;DHT22;63966;47.914;22.266;2022-12-26T07:57:14;6.00;88.02
75387;DHT22;63966;47.914;22.266;2022-12-26T08:00:37;6.10;87.78
75387;DHT22;63966;47.914;22.266;2022-12-26T08:03:41;6.10;87.76
75387;DHT22;63966;47.914;22.266;2022-12-26T08:06:45;6.16;87.31
75387;DHT22;63966;47.914;22.266;2022-12-26T08:09:50;6.26;87.32
75387;DHT22;63966;47.914;22.266;2022-12-26T08:12:54;6.24;87.45
75387;DHT22;63966;47.914;22.266;2022-12-26T08:15:57;6.29;86.97
75387;DHT22;63966;47.914;22.266;2022-12-26T08:19:01;6.34;86.83
75387;DHT22;63966;47.914;22.266;2022-12-26T08:22:06;6.31;87.51
75387;DHT22;63966;47.914;22.266;2022-12-26T08:25:10;6.34;87.16
75387;DHT22;63966;47.914;22.266;2022-12-26T08:28:19;6.42;86.44
75387;DHT22;63966;47.914;22.266;2022-12-26T08:31:24;6.54;86.67
75387;DHT22;63966;47.914;22.266;2022-12-26T08:34:35;6.67;86.49
75387;DHT22;63966;47.914;22.266;2022-12-26T08:37:39;6.88;85.52
75387;DHT22;63966;47.914;22.266;2022-12-26T08:40:42;7.03;84.68
75387;DHT22;63966;47.914;22.266;2022-12-26T08:43:51;7.05;84.54
75387;DHT22;63966;47.914;22.266;2022-12-26T08:47:15;7.10;85.11
75387;DHT22;63966;47.914;22.266;2022-12-26T08:50:18;7.31;83.73
75387;DHT22;63966;47.914;22.266;2022-12-26T08:53:22;7.46;83.21
75387;DHT22;63966;47.914;22.266;2022-12-26T08:56:26;7.33;84.07
75387;DHT22;63966;47.914;22.266;2022-12-26T08:59:31;7.43;83.50
75387;DHT22;63966;47.914;22.266;2022-12-26T09:02:34;7.33;83.98
75387;DHT22;63966;47.914;22.266;2022-12-26T09:05:38;7.43;84.29
75387;DHT22;63966;47.914;22.266;2022-12-26T09:08:42;7.20;84.72
75387;DHT22;63966;47.914;22.266;2022-12-26T09:11:46;7.33;84.45
75387;DHT22;63966;47.914;22.266;2022-12-26T09:14:50;7.38;84.75
75387;DHT22;63966;47.914;22.266;2022-12-26T09:17:54;7.48;84.27
75387;DHT22;63966;47.914;22.266;2022-12-26T09:21:00;7.51;84.34
75387;DHT22;63966;47.914;22.266;2022-12-26T09:24:06;7.65;84.36
75387;DHT22;63966;47.914;22.266;2022-12-26T09:27:10;7.94;82.67
75387;DHT22;63966;47.914;22.266;2022-12-26T09:30:25;8.09;83.43
75387;DHT22;63966;47.914;22.266;2022-12-26T09:33:32;8.23;82.67
75387;DHT22;63966;47.914;22.266;2022-12-26T09:37:04;8.46;82.76
75387;DHT22;63966;47.914;22.266;2022-12-26T09:40:21;8.51;82.09
75387;DHT22;63966;47.914;22.266;2022-12-26T09:47:13;8.59;80.88
75387;DHT22;63966;47.914;22.266;2022-12-26T09:50:32;8.70;81.07
75387;DHT22;63966;47.914;22.266;2022-12-26T09:54:05;8.74;80.98
75387;DHT22;63966;47.914;22.266;2022-12-26T09:57:36;8.87;80.68
75387;DHT22;63966;47.914;22.266;2022-12-26T10:04:08;9.35;78.47
75387;DHT22;63966;47.914;22.266;2022-12-26T10:07:26;9.36;78.40
75387;DHT22;63966;47.914;22.266;2022-12-26T10:10:41;9.40;78.26
75387;DHT22;63966;47.914;22.266;2022-12-26T10:14:10;9.44;78.75
75387;DHT22;63966;47.914;22.266;2022-12-26T10:24:29;9.69;79.22
75387;DHT22;63966;47.914;22.266;2022-12-26T10:27:39;9.74;79.16
75387;DHT22;63966;47.914;22.266;2022-12-26T10:30:45;9.63;79.80
75387;DHT22;63966;47.914;22.266;2022-12-26T10:37:40;9.76;79.58
75387;DHT22;63966;47.914;22.266;2022-12-26T10:40:45;9.83;79.54
75387;DHT22;63966;47.914;22.266;2022-12-26T10:43:50;9.88;79.53
75387;DHT22;63966;47.914;22.266;2022-12-26T10:47:14;9.84;79.39
75387;DHT22;63966;47.914;22.266;2022-12-26T10:50:22;9.84;79.55
75387;DHT22;63966;47.914;22.266;2022-12-26T10:53:51;9.74;79.48
75387;DHT22;63966;47.914;22.266;2022-12-26T10:56:56;9.81;79.58
75387;DHT22;63966;47.914;22.266;2022-12-26T11:00:06;9.95;79.20
75387;DHT22;63966;47.914;22.266;2022-12-26T11:03:18;10.04;79.47
75387;DHT22;63966;47.914;22.266;2022-12-26T11:06:37;10.09;79.83
75387;DHT22;63966;47.914;22.266;2022-12-26T11:09:44;10.09;80.33
75387;DHT22;63966;47.914;22.266;2022-12-26T11:12:54;10.12;80.38
75387;DHT22;63966;47.914;22.266;2022-12-26T11:15:59;10.08;80.85
75387;DHT22;63966;47.914;22.266;2022-12-26T11:19:03;10.18;80.43
75387;DHT22;63966;47.914;22.266;2022-12-26T11:25:25;10.26;80.47
75387;DHT22;63966;47.914;22.266;2022-12-26T11:28:36;10.19;80.85
75387;DHT22;63966;47.914;22.266;2022-12-26T11:34:56;10.25;81.16
75387;DHT22;63966;47.914;22.266;2022-12-26T11:38:01;10.19;81.48
75387;DHT22;63966;47.914;22.266;2022-12-26T11:44:42;10.18;82.02
75387;DHT22;63966;47.914;22.266;2022-12-26T11:47:48;10.25;82.13
75387;DHT22;63966;47.914;22.266;2022-12-26T11:50:53;10.19;82.41
75387;DHT22;63966;47.914;22.266;2022-12-26T11:54:23;10.12;82.83
75387;DHT22;63966;47.914;22.266;2022-12-26T11:57:32;10.15;82.58
75387;DHT22;63966;47.914;22.266;2022-12-26T12:03:48;9.94;83.38
75387;DHT22;63966;47.914;22.266;2022-12-26T12:07:07;9.94;83.45
75387;DHT22;63966;47.914;22.266;2022-12-26T12:10:42;10.01;83.17
75387;DHT22;63966;47.914;22.266;2022-12-26T12:14:09;10.09;83.35
75387;DHT22;63966;47.914;22.266;2022-12-26T12:17:38;10.25;82.58
75387;DHT22;63966;47.914;22.266;2022-12-26T12:38:32;10.45;82.72
75387;DHT22;63966;47.914;22.266;2022-12-26T12:51:54;10.31;83.36
75387;DHT22;63966;47.914;22.266;2022-12-26T12:58:55;10.39;82.84
75387;DHT22;63966;47.914;22.266;2022-12-26T13:02:41;10.39;82.85
75387;DHT22;63966;47.914;22.266;2022-12-26T13:06:06;10.41;82.85
75387;DHT22;63966;47.914;22.266;2022-12-26T17:46:40;9.61;88.52
75387;DHT22;63966;47.914;22.266;2022-12-26T17:49:47;9.57;88.64
75387;DHT22;63966;47.914;22.266;2022-12-26T17:56:23;9.61;88.43
75387;DHT22;63966;47.914;22.266;2022-12-26T17:59:29;9.59;88.46
75387;DHT22;63966;47.914;22.266;2022-12-26T18:02:38;9.63;88.53
75387;DHT22;63966;47.914;22.266;2022-12-26T18:05:43;9.59;88.51
75387;DHT22;63966;47.914;22.266;2022-12-26T18:08:52;9.57;88.52
75387;DHT22;63966;47.914;22.266;2022-12-26T18:11:57;9.56;88.55
75387;DHT22;63966;47.914;22.266;2022-12-26T18:15:01;9.59;88.47
75387;DHT22;63966;47.914;22.266;2022-12-26T18:18:08;9.69;88.12
75387;DHT22;63966;47.914;22.266;2022-12-26T18:21:15;9.76;87.69
75387;DHT22;63966;47.914;22.266;2022-12-26T18:24:19;9.77;87.55
75387;DHT22;63966;47.914;22.266;2022-12-26T18:27:30;9.71;87.88
75387;DHT22;63966;47.914;22.266;2022-12-26T18:30:35;9.71;87.71
75387;DHT22;63966;47.914;22.266;2022-12-26T18:33:38;9.67;87.80
75387;DHT22;63966;47.914;22.266;2022-12-26T18:36:42;9.64;87.72
75387;DHT22;63966;47.914;22.266;2022-12-26T18:39:46;9.63;87.70
75387;DHT22;63966;47.914;22.266;2022-12-26T18:42:49;9.71;87.26
75387;DHT22;63966;47.914;22.266;2022-12-26T18:45:53;9.70;87.01
75387;DHT22;63966;47.914;22.266;2022-12-26T18:49:01;9.63;86.81
75387;DHT22;63966;47.914;22.266;2022-12-26T18:52:04;9.54;86.84
75387;DHT22;63966;47.914;22.266;2022-12-26T18:55:09;9.54;86.71
75387;DHT22;63966;47.914;22.266;2022-12-26T18:58:12;9.54;86.68
75387;DHT22;63966;47.914;22.266;2022-12-26T19:01:17;9.54;86.52
75387;DHT22;63966;47.914;22.266;2022-12-26T19:04:22;9.56;86.63
75387;DHT22;63966;47.914;22.266;2022-12-26T19:07:25;9.56;86.40
75387;DHT22;63966;47.914;22.266;2022-12-26T19:10:32;9.47;86.72
75387;DHT22;63966;47.914;22.266;2022-12-26T19:13:37;9.43;86.79
75387;DHT22;63966;47.914;22.266;2022-12-26T19:16:40;9.43;86.86
75387;DHT22;63966;47.914;22.266;2022-12-26T19:19:44;9.44;86.72
75387;DHT22;63966;47.914;22.266;2022-12-26T19:22:48;9.38;87.00
75387;DHT22;63966;47.914;22.266;2022-12-26T19:25:52;9.38;87.01
75387;DHT22;63966;47.914;22.266;2022-12-26T19:28:56;9.42;86.77
75387;DHT22;63966;47.914;22.266;2022-12-26T19:31:59;9.40;86.91
75387;DHT22;63966;47.914;22.266;2022-12-26T19:35:03;9.44;86.56
75387;DHT22;63966;47.914;22.266;2022-12-26T19:38:07;9.43;86.54
75387;DHT22;63966;47.914;22.266;2022-12-26T19:41:12;9.42;86.65
75387;DHT22;63966;47.914;22.266;2022-12-26T19:44:16;9.38;86.73
75387;DHT22;63966;47.914;22.266;2022-12-26T19:47:20;9.26;87.09
75387;DHT22;63966;47.914;22.266;2022-12-26T19:50:23;9.29;87.15
75387;DHT22;63966;47.914;22.266;2022-12-26T19:53:31;9.29;87.26
75387;DHT22;63966;47.914;22.266;2022-12-26T19:56:35;9.32;87.25
75387;DHT22;63966;47.914;22.266;2022-12-26T19:59:38;9.43;86.62
75387;DHT22;63966;47.914;22.266;2022-12-26T20:02:44;9.53;86.18
75387;DHT22;63966;47.914;22.266;2022-12-26T20:05:49;9.44;86.41
75387;DHT22;63966;47.914;22.266;2022-12-26T20:08:57;9.40;86.71
75387;DHT22;63966;47.914;22.266;2022-12-26T20:12:01;9.43;86.38
75387;DHT22;63966;47.914;22.266;2022-12-26T20:15:06;9.43;86.37
75387;DHT22;63966;47.914;22.266;2022-12-26T20:18:09;9.46;86.26
75387;DHT22;63966;47.914;22.266;2022-12-26T20:21:17;9.33;86.53
75387;DHT22;63966;47.914;22.266;2022-12-26T20:24:21;9.15;87.09
75387;DHT22;63966;47.914;22.266;2022-12-26T20:27:25;9.09;87.48
75387;DHT22;63966;47.914;22.266;2022-12-26T20:30:29;9.15;87.17
75387;DHT22;63966;47.914;22.266;2022-12-26T20:33:35;9.15;87.12
75387;DHT22;63966;47.914;22.266;2022-12-26T20:36:41;9.15;87.25
75387;DHT22;63966;47.914;22.266;2022-12-26T20:39:45;9.07;87.39
75387;DHT22;63966;47.914;22.266;2022-12-26T20:42:48;9.07;87.35
75387;DHT22;63966;47.914;22.266;2022-12-26T20:45:52;9.19;86.96
75387;DHT22;63966;47.914;22.266;2022-12-26T20:48:57;9.19;86.76
75387;DHT22;63966;47.914;22.266;2022-12-26T20:52:01;9.23;86.60
75387;DHT22;63966;47.914;22.266;2022-12-26T20:55:05;9.22;86.70
75387;DHT22;63966;47.914;22.266;2022-12-26T20:58:08;9.12;87.12
75387;DHT22;63966;47.914;22.266;2022-12-26T21:01:15;9.09;87.25
75387;DHT22;63966;47.914;22.266;2022-12-26T21:04:21;9.15;87.04
75387;DHT22;63966;47.914;22.266;2022-12-26T21:07:25;9.09;87.27
75387;DHT22;63966;47.914;22.266;2022-12-26T21:10:43;9.09;87.43
75387;DHT22;63966;47.914;22.266;2022-12-26T21:13:48;9.12;87.40
75387;DHT22;63966;47.914;22.266;2022-12-26T21:16:54;9.15;87.32
75387;DHT22;63966;47.914;22.266;2022-12-26T21:20:05;9.11;87.27
75387;DHT22;63966;47.914;22.266;2022-12-26T21:23:16;9.09;87.27
75387;DHT22;63966;47.914;22.266;2022-12-26T21:26:19;9.08;86.95
75387;DHT22;63966;47.914;22.266;2022-12-26T21:29:26;9.14;86.79
75387;DHT22;63966;47.914;22.266;2022-12-26T21:32:30;9.12;86.82
75387;DHT22;63966;47.914;22.266;2022-12-26T21:35:36;9.07;87.03
75387;DHT22;63966;47.914;22.266;2022-12-26T21:38:41;9.18;86.74
75387;DHT22;63966;47.914;22.266;2022-12-26T21:41:44;9.08;86.97
75387;DHT22;63966;47.914;22.266;2022-12-26T21:44:48;9.11;86.92
75387;DHT22;63966;47.914;22.266;2022-12-26T21:47:52;9.07;86.85
75387;DHT22;63966;47.914;22.266;2022-12-26T21:50:56;9.08;86.97
75387;DHT22;63966;47.914;22.266;2022-12-26T21:54:00;9.04;87.13
75387;DHT22;63966;47.914;22.266;2022-12-26T21:57:22;9.18;86.60
75387;DHT22;63966;47.914;22.266;2022-12-26T22:00:26;9.11;86.74
75387;DHT22;63966;47.914;22.266;2022-12-26T22:03:30;9.02;87.16
75387;DHT22;63966;47.914;22.266;2022-12-26T22:06:53;8.97;87.40
75387;DHT22;63966;47.914;22.266;2022-12-26T22:10:03;9.01;87.38
75387;DHT22;63966;47.914;22.266;2022-12-26T22:13:08;8.98;87.57
75387;DHT22;63966;47.914;22.266;2022-12-26T22:16:24;8.97;87.65
75387;DHT22;63966;47.914;22.266;2022-12-26T22:19:29;8.92;87.73
75387;DHT22;63966;47.914;22.266;2022-12-26T22:22:32;8.97;87.55
75387;DHT22;63966;47.914;22.266;2022-12-26T22:25:37;8.93;87.61
75387;DHT22;63966;47.914;22.266;2022-12-26T22:28:41;8.89;87.78
75387;DHT22;63966;47.914;22.266;2022-12-26T22:31:46;8.85;87.95
75387;DHT22;63966;47.914;22.266;2022-12-26T22:34:53;8.91;87.98
75387;DHT22;63966;47.914;22.266;2022-12-26T22:37:56;8.91;87.91
75387;DHT22;63966;47.914;22.266;2022-12-26T22:41:00;8.91;87.87
75387;DHT22;63966;47.914;22.266;2022-12-26T22:44:04;8.89;87.83
75387;DHT22;63966;47.914;22.266;2022-12-26T22:47:07;8.97;87.64
75387;DHT22;63966;47.914;22.266;2022-12-26T22:50:15;8.93;87.67
75387;DHT22;63966;47.914;22.266;2022-12-26T22:53:23;8.97;87.62
75387;DHT22;63966;47.914;22.266;2022-12-26T22:56:32;8.91;87.71
75387;DHT22;63966;47.914;22.266;2022-12-26T22:59:37;8.98;87.45
75387;DHT22;63966;47.914;22.266;2022-12-26T23:03:01;8.87;88.09
75387;DHT22;63966;47.914;22.266;2022-12-26T23:06:19;8.88;88.12
75387;DHT22;63966;47.914;22.266;2022-12-26T23:09:26;8.85;88.24
75387;DHT22;63966;47.914;22.266;2022-12-26T23:12:31;8.71;88.71
75387;DHT22;63966;47.914;22.266;2022-12-26T23:19:47;8.78;88.71
75387;DHT22;63966;47.914;22.266;2022-12-26T23:23:12;8.84;88.65
75387;DHT22;63966;47.914;22.266;2022-12-26T23:26:15;8.85;88.63
75387;DHT22;63966;47.914;22.266;2022-12-26T23:29:21;8.87;88.60
75387;DHT22;63966;47.914;22.266;2022-12-26T23:32:49;8.91;88.49
75387;DHT22;63966;47.914;22.266;2022-12-26T23:35:52;8.88;88.49
75387;DHT22;63966;47.914;22.266;2022-12-26T23:38:56;8.91;88.40
75387;DHT22;63966;47.914;22.266;2022-12-26T23:41:59;8.87;88.38
75387;DHT22;63966;47.914;22.266;2022-12-26T23:45:05;8.81;88.60
75387;DHT22;63966;47.914;22.266;2022-12-26T23:48:09;8.82;88.54
75387;DHT22;63966;47.914;22.266;2022-12-26T23:51:13;8.78;88.61
75387;DHT22;63966;47.914;22.266;2022-12-26T23:54:17;8.81;88.66
75387;DHT22;63966;47.914;22.266;2022-12-26T23:57:20;8.82;88.47
